HVK1GT LTAN-ETNW
Flight info
| Callsign | HVK1GT |
|---|---|
| Flight time | N/A |
| Altitude | 38000 |
| Route | HISAR UB545 KFK UM855 SISPI UT615 SULTA UW714 YAA UA16 FENER UT264 TUDBU Q26 UPAMA DCT LAMIT DCT ARCAZ DCT BALAP DCT TIBLA DCT HDO DCT ODLUN Y233 EMBOX L986 SAS L980 ROBEG |
| Aircraft | A400/H-SDE3FGHIRWY/L4T |
Departure
| Time | 2026-04-21 22:34 |
|---|---|
| Airport | Konya Airport (LTAN) |
Arrival
| Time | N/A |
|---|---|
| Airport | Wunstorf Air Base (ETNW) |
| Time | Latitude | Longitude | Altitude | Speed | Heading |
|---|---|---|---|---|---|
| 2026-04-21 22:01 | 37.98259 | 32.55715 | 3400 ft | 0 kts | 18° |
| 2026-04-21 22:30 | 37.98268 | 32.55719 | 3401 ft | 5 kts | 18° |
| 2026-04-21 22:30 | 37.98308 | 32.55738 | 3401 ft | 6 kts | 24° |
| 2026-04-21 22:30 | 37.98308 | 32.55792 | 3400 ft | 13 kts | 104° |
| 2026-04-21 22:30 | 37.98281 | 32.55908 | 3400 ft | 14 kts | 106° |
| 2026-04-21 22:31 | 37.98254 | 32.56032 | 3401 ft | 14 kts | 100° |
| 2026-04-21 22:31 | 37.98314 | 32.56101 | 3400 ft | 14 kts | 12° |
| 2026-04-21 22:31 | 37.98439 | 32.56148 | 3398 ft | 21 kts | 16° |
| 2026-04-21 22:31 | 37.98577 | 32.56200 | 3398 ft | 20 kts | 16° |
| 2026-04-21 22:32 | 37.98714 | 32.56250 | 3398 ft | 20 kts | 16° |
| 2026-04-21 22:32 | 37.98847 | 32.56301 | 3401 ft | 20 kts | 16° |
| 2026-04-21 22:32 | 37.98979 | 32.56351 | 3400 ft | 20 kts | 18° |
| 2026-04-21 22:32 | 37.99117 | 32.56405 | 3401 ft | 24 kts | 17° |
| 2026-04-21 22:33 | 37.99273 | 32.56464 | 3401 ft | 23 kts | 17° |
| 2026-04-21 22:33 | 37.99385 | 32.56535 | 3401 ft | 10 kts | 5° |
| 2026-04-21 22:33 | 37.99386 | 32.56509 | 3401 ft | 5 kts | 218° |
| 2026-04-21 22:33 | 37.99350 | 32.56494 | 3401 ft | 4 kts | 196° |
| 2026-04-21 22:34 | 37.99171 | 32.56427 | 3402 ft | 75 kts | 197° |
| 2026-04-21 22:34 | 37.98278 | 32.56089 | 3472 ft | 172 kts | 197° |
| 2026-04-21 22:34 | 37.97085 | 32.55631 | 4279 ft | 184 kts | 197° |
| 2026-04-21 22:34 | 37.95772 | 32.55129 | 5147 ft | 212 kts | 197° |
| 2026-04-21 22:35 | 37.94318 | 32.54582 | 6310 ft | 223 kts | 204° |
| 2026-04-21 22:35 | 37.93183 | 32.53320 | 7225 ft | 219 kts | 243° |
| 2026-04-21 22:35 | 37.92957 | 32.51467 | 7806 ft | 216 kts | 283° |
| 2026-04-21 22:35 | 37.93739 | 32.49813 | 8668 ft | 228 kts | 314° |
| 2026-04-21 22:36 | 37.95832 | 32.46509 | 10481 ft | 268 kts | 286° |
| 2026-04-21 22:36 | 37.96246 | 32.44148 | 11147 ft | 289 kts | 280° |
| 2026-04-21 22:36 | 37.96617 | 32.41599 | 11984 ft | 296 kts | 281° |
| 2026-04-21 22:37 | 37.97006 | 32.39044 | 13105 ft | 296 kts | 281° |
| 2026-04-21 22:37 | 37.97420 | 32.36472 | 14124 ft | 299 kts | 282° |
| 2026-04-21 22:37 | 37.97855 | 32.33881 | 15055 ft | 303 kts | 282° |
| 2026-04-21 22:37 | 37.98304 | 32.31258 | 16004 ft | 305 kts | 282° |
| 2026-04-21 22:38 | 37.98761 | 32.28615 | 16958 ft | 309 kts | 282° |
| 2026-04-21 22:38 | 37.99227 | 32.25939 | 17907 ft | 313 kts | 281° |
| 2026-04-21 22:38 | 37.99699 | 32.23230 | 18811 ft | 316 kts | 281° |
| 2026-04-21 22:38 | 38.00177 | 32.20491 | 19641 ft | 321 kts | 281° |
| 2026-04-21 22:39 | 38.00661 | 32.17712 | 20462 ft | 324 kts | 281° |
| 2026-04-21 22:39 | 38.01150 | 32.14904 | 21301 ft | 328 kts | 281° |
| 2026-04-21 22:39 | 38.01644 | 32.12065 | 22119 ft | 332 kts | 281° |
| 2026-04-21 22:39 | 38.02144 | 32.09186 | 22932 ft | 337 kts | 281° |
| 2026-04-21 22:40 | 38.02649 | 32.06270 | 23730 ft | 340 kts | 282° |
| 2026-04-21 22:40 | 38.03157 | 32.03334 | 24421 ft | 342 kts | 282° |
| 2026-04-21 22:40 | 38.03669 | 32.00373 | 25069 ft | 345 kts | 282° |
| 2026-04-21 22:40 | 38.04184 | 31.97391 | 25685 ft | 348 kts | 282° |
| 2026-04-21 22:41 | 38.04702 | 31.94385 | 26281 ft | 351 kts | 282° |
| 2026-04-21 22:41 | 38.05224 | 31.91350 | 26845 ft | 353 kts | 282° |
| 2026-04-21 22:41 | 38.05750 | 31.88288 | 27415 ft | 356 kts | 282° |
| 2026-04-21 22:41 | 38.06277 | 31.85211 | 27921 ft | 358 kts | 282° |
| 2026-04-21 22:42 | 38.06808 | 31.82109 | 28425 ft | 361 kts | 282° |
| 2026-04-21 22:42 | 38.07341 | 31.78987 | 28914 ft | 363 kts | 282° |
| 2026-04-21 22:42 | 38.07877 | 31.75849 | 29429 ft | 364 kts | 282° |
| 2026-04-21 22:42 | 38.08410 | 31.72715 | 30001 ft | 363 kts | 282° |
| 2026-04-21 22:43 | 38.08934 | 31.69635 | 30560 ft | 361 kts | 282° |
| 2026-04-21 22:43 | 38.09467 | 31.66491 | 31085 ft | 359 kts | 282° |
| 2026-04-21 22:43 | 38.09991 | 31.63403 | 31631 ft | 357 kts | 282° |
| 2026-04-21 22:43 | 38.10504 | 31.60370 | 32159 ft | 355 kts | 282° |
| 2026-04-21 22:44 | 38.11111 | 31.57296 | 32712 ft | 354 kts | 286° |
| 2026-04-21 22:44 | 38.12008 | 31.54439 | 33248 ft | 354 kts | 295° |
| 2026-04-21 22:44 | 38.13305 | 31.51778 | 33787 ft | 355 kts | 303° |
| 2026-04-21 22:44 | 38.14855 | 31.49333 | 34268 ft | 356 kts | 306° |
| 2026-04-21 22:45 | 38.16482 | 31.46959 | 34714 ft | 356 kts | 308° |
| 2026-04-21 22:45 | 38.18144 | 31.44625 | 35162 ft | 356 kts | 308° |
| 2026-04-21 22:45 | 38.19816 | 31.42303 | 35586 ft | 356 kts | 308° |
| 2026-04-21 22:45 | 38.21487 | 31.39980 | 36007 ft | 355 kts | 308° |
| 2026-04-21 22:46 | 38.23148 | 31.37657 | 36402 ft | 355 kts | 308° |
| 2026-04-21 22:46 | 38.24804 | 31.35324 | 36769 ft | 355 kts | 308° |
| 2026-04-21 22:46 | 38.26454 | 31.32986 | 37121 ft | 355 kts | 308° |